Time,TemperatureF,DewpointF,PressureIn,WindDirection,WindDirectionDegrees,WindSpeedMPH,WindSpeedGustMPH,Humidity,HourlyPrecipIn,Conditions,Clouds,dailyrainin,SolarRadiationWatts/m^2,SoftwareType,DateUTC
2013-03-18 00:22:00,17.0,0.0,-100.00,WNW,284,6.0,18.0,47,0.00,,,0.06,0.000000,,2013-03-18 06:22:00,
2013-03-18 00:32:00,17.0,0.0,-100.00,WNW,284,6.0,18.0,47,0.00,,,0.06,0.000000,,2013-03-18 06:32:00,
2013-03-18 00:42:00,17.0,0.0,-100.00,WNW,284,6.0,18.0,47,0.00,,,0.06,0.000000,,2013-03-18 06:42:00,
2013-03-18 00:52:00,17.0,0.0,-100.00,WNW,284,6.0,18.0,47,0.00,,,0.06,0.000000,,2013-03-18 06:52:00,
2013-03-18 01:22:00,16.0,3.0,-100.00,WNW,303,5.0,15.0,56,0.00,,,0.06,0.000000,,2013-03-18 07:22:00,
2013-03-18 01:33:00,16.0,3.0,-100.00,WNW,303,5.0,15.0,56,0.00,,,0.06,0.000000,,2013-03-18 07:33:00,
2013-03-18 01:42:00,16.0,3.0,-100.00,WNW,303,5.0,15.0,56,0.00,,,0.06,0.000000,,2013-03-18 07:42:00,
2013-03-18 01:52:00,16.0,3.0,-100.00,WNW,303,5.0,15.0,56,0.00,,,0.06,0.000000,,2013-03-18 07:52:00,
2013-03-18 02:12:00,15.0,3.0,-100.00,West,265,5.0,14.0,59,0.00,,,0.06,0.000000,,2013-03-18 08:12:00,
2013-03-18 02:22:00,15.0,3.0,-100.00,West,265,5.0,14.0,59,0.00,,,0.06,0.000000,,2013-03-18 08:22:00,
2013-03-18 02:32:00,15.0,3.0,-100.00,West,265,5.0,14.0,59,0.00,,,0.06,0.000000,,2013-03-18 08:32:00,
2013-03-18 02:43:00,15.0,3.0,-100.00,West,265,5.0,14.0,59,0.00,,,0.06,0.000000,,2013-03-18 08:43:00,
2013-03-18 02:52:00,15.0,3.0,-100.00,West,265,5.0,14.0,59,0.00,,,0.06,0.000000,,2013-03-18 08:52:00,
2013-03-18 03:22:00,14.0,0.0,-100.00,WNW,291,4.0,10.0,54,0.00,,,0.06,0.000000,,2013-03-18 09:22:00,
2013-03-18 03:33:00,14.0,0.0,-100.00,WNW,291,4.0,10.0,54,0.00,,,0.06,0.000000,,2013-03-18 09:33:00,
2013-03-18 03:43:00,14.0,0.0,-100.00,WNW,291,4.0,10.0,54,0.00,,,0.06,0.000000,,2013-03-18 09:43:00,
2013-03-18 03:53:00,14.0,0.0,-100.00,WNW,291,4.0,10.0,54,0.00,,,0.06,0.000000,,2013-03-18 09:53:00,
2013-03-18 04:23:00,12.0,-1.0,-100.00,WNW,285,4.0,10.0,54,0.00,,,0.06,0.000000,,2013-03-18 10:23:00,
2013-03-18 04:33:00,12.0,-1.0,-100.00,WNW,285,4.0,10.0,54,0.00,,,0.06,0.000000,,2013-03-18 10:33:00,
2013-03-18 04:42:00,12.0,-1.0,-100.00,WNW,285,4.0,10.0,54,0.00,,,0.06,0.000000,,2013-03-18 10:42:00,
2013-03-18 04:52:00,12.0,-1.0,-100.00,WNW,285,4.0,10.0,54,0.00,,,0.06,0.000000,,2013-03-18 10:52:00,
2013-03-18 05:13:00,13.0,-3.0,-100.00,West,280,4.0,10.0,49,0.00,,,0.06,0.000000,,2013-03-18 11:13:00,
2013-03-18 05:22:00,13.0,-3.0,-100.00,West,280,4.0,10.0,49,0.00,,,0.06,0.000000,,2013-03-18 11:22:00,
2013-03-18 05:32:00,13.0,-3.0,-100.00,West,280,4.0,10.0,49,0.00,,,0.06,0.000000,,2013-03-18 11:32:00,
2013-03-18 05:42:00,13.0,-3.0,-100.00,West,280,4.0,10.0,49,0.00,,,0.06,0.000000,,2013-03-18 11:42:00,
2013-03-18 05:52:00,13.0,-3.0,-100.00,West,280,4.0,10.0,49,0.00,,,0.06,0.000000,,2013-03-18 11:52:00,
2013-03-18 06:12:00,14.0,-1.0,-100.00,WNW,293,5.0,21.0,50,0.00,,,0.06,0.000000,,2013-03-18 12:12:00,
2013-03-18 06:22:00,14.0,-1.0,-100.00,WNW,293,5.0,21.0,50,0.00,,,0.06,0.000000,,2013-03-18 12:22:00,
2013-03-18 06:32:00,14.0,-1.0,-100.00,WNW,293,5.0,21.0,50,0.00,,,0.06,0.000000,,2013-03-18 12:32:00,
2013-03-18 06:42:00,14.0,-1.0,-100.00,WNW,293,5.0,21.0,50,0.00,,,0.06,0.000000,,2013-03-18 12:42:00,
2013-03-18 06:52:00,14.0,-1.0,-100.00,WNW,293,5.0,21.0,50,0.00,,,0.06,0.000000,,2013-03-18 12:52:00,
2013-03-18 07:22:00,13.0,3.0,-100.00,WNW,285,4.0,12.0,64,0.00,,,0.06,0.000000,,2013-03-18 13:22:00,
2013-03-18 07:33:00,13.0,3.0,-100.00,WNW,285,4.0,12.0,64,0.00,,,0.06,0.000000,,2013-03-18 13:33:00,
2013-03-18 07:42:00,13.0,3.0,-100.00,WNW,285,4.0,12.0,64,0.00,,,0.06,0.000000,,2013-03-18 13:42:00,
2013-03-18 07:52:00,13.0,3.0,-100.00,WNW,285,4.0,12.0,64,0.00,,,0.06,0.000000,,2013-03-18 13:52:00,
2013-03-18 08:12:00,12.0,6.0,-100.00,West,274,5.0,12.0,75,0.00,,,0.06,11.000000,,2013-03-18 14:12:00,
2013-03-18 08:22:00,12.0,6.0,-100.00,West,274,5.0,12.0,75,0.00,,,0.06,11.000000,,2013-03-18 14:22:00,
2013-03-18 08:32:00,12.0,6.0,-100.00,West,274,5.0,12.0,75,0.00,,,0.06,11.000000,,2013-03-18 14:32:00,
2013-03-18 08:42:00,12.0,6.0,-100.00,West,274,5.0,12.0,75,0.00,,,0.06,11.000000,,2013-03-18 14:42:00,
2013-03-18 08:52:00,12.0,6.0,-100.00,West,274,5.0,12.0,75,0.00,,,0.06,11.000000,,2013-03-18 14:52:00,
2013-03-18 09:12:00,13.0,5.0,-100.00,WSW,249,5.0,10.0,71,0.00,,,0.06,74.000000,,2013-03-18 15:12:00,
2013-03-18 09:22:00,13.0,5.0,-100.00,WSW,249,5.0,10.0,71,0.00,,,0.06,74.000000,,2013-03-18 15:22:00,
2013-03-18 09:33:00,13.0,5.0,-100.00,WSW,249,5.0,10.0,71,0.00,,,0.06,74.000000,,2013-03-18 15:33:00,
2013-03-18 09:43:00,13.0,5.0,-100.00,WSW,249,5.0,10.0,71,0.00,,,0.06,74.000000,,2013-03-18 15:43:00,
2013-03-18 09:52:00,13.0,5.0,-100.00,WSW,249,5.0,10.0,71,0.00,,,0.06,74.000000,,2013-03-18 15:52:00,
2013-03-18 10:22:00,18.0,7.0,-100.00,WSW,255,1.0,7.0,62,0.00,,,0.06,209.000000,,2013-03-18 16:22:00,
2013-03-18 10:32:00,18.0,7.0,-100.00,WSW,255,1.0,7.0,62,0.00,,,0.06,209.000000,,2013-03-18 16:32:00,
2013-03-18 10:42:00,18.0,7.0,-100.00,WSW,255,1.0,7.0,62,0.00,,,0.06,209.000000,,2013-03-18 16:42:00,
2013-03-18 10:52:00,18.0,7.0,-100.00,WSW,255,1.0,7.0,62,0.00,,,0.06,209.000000,,2013-03-18 16:52:00,
2013-03-18 11:12:00,20.0,9.0,-100.00,South,180,5.0,9.0,63,0.01,,,0.07,413.000000,,2013-03-18 17:12:00,
2013-03-18 11:22:00,20.0,9.0,-100.00,South,180,5.0,9.0,63,0.01,,,0.07,413.000000,,2013-03-18 17:22:00,
2013-03-18 11:32:00,20.0,9.0,-100.00,South,180,5.0,9.0,63,0.01,,,0.07,413.000000,,2013-03-18 17:32:00,
2013-03-18 11:42:00,20.0,9.0,-100.00,South,180,5.0,9.0,63,0.01,,,0.07,413.000000,,2013-03-18 17:42:00,
2013-03-18 11:52:00,20.0,9.0,-100.00,South,180,5.0,9.0,63,0.01,,,0.07,413.000000,,2013-03-18 17:52:00,
2013-03-18 12:22:00,22.0,11.0,-100.00,SSW,208,6.0,10.0,62,0.02,,,0.09,503.000000,,2013-03-18 18:22:00,
2013-03-18 12:32:00,22.0,11.0,-100.00,SSW,208,6.0,10.0,62,0.02,,,0.09,503.000000,,2013-03-18 18:32:00,
2013-03-18 12:42:00,22.0,11.0,-100.00,SSW,208,6.0,10.0,62,0.02,,,0.09,503.000000,,2013-03-18 18:42:00,
2013-03-18 12:52:00,22.0,11.0,-100.00,SSW,208,6.0,10.0,62,0.02,,,0.09,503.000000,,2013-03-18 18:52:00,
2013-03-18 13:22:00,23.0,13.0,-100.00,SSW,204,8.0,18.0,66,0.02,,,0.06,614.000000,,2013-03-18 19:22:00,
2013-03-18 13:33:00,23.0,13.0,-100.00,SSW,204,8.0,18.0,66,0.02,,,0.06,614.000000,,2013-03-18 19:33:00,
2013-03-18 13:42:00,23.0,13.0,-100.00,SSW,204,8.0,18.0,66,0.02,,,0.06,614.000000,,2013-03-18 19:42:00,
2013-03-18 13:52:00,23.0,13.0,-100.00,SSW,204,8.0,18.0,66,0.02,,,0.06,614.000000,,2013-03-18 19:52:00,
2013-03-18 14:23:00,25.0,11.0,-100.00,SW,234,9.0,19.0,55,0.00,,,0.05,572.000000,,2013-03-18 20:23:00,
2013-03-18 14:33:00,25.0,11.0,-100.00,SW,234,9.0,19.0,55,0.00,,,0.05,572.000000,,2013-03-18 20:33:00,
2013-03-18 14:42:00,25.0,11.0,-100.00,SW,234,9.0,19.0,55,0.00,,,0.05,572.000000,,2013-03-18 20:42:00,
2013-03-18 14:52:00,25.0,11.0,-100.00,SW,234,9.0,19.0,55,0.00,,,0.05,572.000000,,2013-03-18 20:52:00,
2013-03-18 15:12:00,25.0,9.0,-100.00,WSW,243,7.0,15.0,49,0.00,,,0.05,565.000000,,2013-03-18 21:12:00,
2013-03-18 15:22:00,25.0,9.0,-100.00,WSW,243,7.0,15.0,49,0.00,,,0.05,565.000000,,2013-03-18 21:22:00,
2013-03-18 15:32:00,25.0,9.0,-100.00,WSW,243,7.0,15.0,49,0.00,,,0.05,565.000000,,2013-03-18 21:32:00,
2013-03-18 15:42:00,25.0,9.0,-100.00,WSW,243,7.0,15.0,49,0.00,,,0.05,565.000000,,2013-03-18 21:42:00,
2013-03-18 15:52:00,25.0,9.0,-100.00,WSW,243,7.0,15.0,49,0.00,,,0.05,565.000000,,2013-03-18 21:52:00,
2013-03-18 16:23:00,26.0,7.0,-100.00,West,264,9.0,18.0,43,0.00,,,0.05,388.000000,,2013-03-18 22:23:00,
2013-03-18 16:33:00,26.0,7.0,-100.00,West,264,9.0,18.0,43,0.00,,,0.05,388.000000,,2013-03-18 22:33:00,
2013-03-18 16:42:00,26.0,7.0,-100.00,West,264,9.0,18.0,43,0.00,,,0.05,388.000000,,2013-03-18 22:42:00,
2013-03-18 16:52:00,26.0,7.0,-100.00,West,264,9.0,18.0,43,0.00,,,0.05,388.000000,,2013-03-18 22:52:00,
2013-03-18 17:12:00,23.0,8.0,-100.00,SSW,199,8.0,19.0,51,0.00,,,0.05,218.000000,,2013-03-18 23:12:00,
2013-03-18 17:22:00,23.0,8.0,-100.00,SSW,199,8.0,19.0,51,0.00,,,0.05,218.000000,,2013-03-18 23:22:00,
2013-03-18 17:32:00,23.0,8.0,-100.00,SSW,199,8.0,19.0,51,0.00,,,0.05,218.000000,,2013-03-18 23:32:00,
2013-03-18 17:42:00,23.0,8.0,-100.00,SSW,199,8.0,19.0,51,0.00,,,0.05,218.000000,,2013-03-18 23:42:00,
2013-03-18 17:52:00,23.0,8.0,-100.00,SSW,199,8.0,19.0,51,0.00,,,0.05,218.000000,,2013-03-18 23:52:00,
2013-03-18 18:12:00,24.0,3.0,-100.00,WSW,249,9.0,21.0,39,0.00,,,0.05,130.000000,,2013-03-19 00:12:00,
2013-03-18 18:22:00,24.0,3.0,-100.00,WSW,249,9.0,21.0,39,0.00,,,0.05,130.000000,,2013-03-19 00:22:00,
2013-03-18 18:32:00,24.0,3.0,-100.00,WSW,249,9.0,21.0,39,0.00,,,0.05,130.000000,,2013-03-19 00:32:00,
2013-03-18 18:42:00,24.0,3.0,-100.00,WSW,249,9.0,21.0,39,0.00,,,0.05,130.000000,,2013-03-19 00:42:00,
2013-03-18 18:52:00,24.0,3.0,-100.00,WSW,249,9.0,21.0,39,0.00,,,0.05,130.000000,,2013-03-19 00:52:00,
2013-03-18 19:22:00,22.0,6.0,-100.00,SW,216,14.0,23.0,50,0.00,,,0.05,44.000000,,2013-03-19 01:22:00,
2013-03-18 19:32:00,22.0,6.0,-100.00,SW,216,14.0,23.0,50,0.00,,,0.05,44.000000,,2013-03-19 01:32:00,
2013-03-18 19:42:00,22.0,6.0,-100.00,SW,216,14.0,23.0,50,0.00,,,0.05,44.000000,,2013-03-19 01:42:00,
2013-03-18 19:52:00,22.0,6.0,-100.00,SW,216,14.0,23.0,50,0.00,,,0.05,44.000000,,2013-03-19 01:52:00,
2013-03-18 20:12:00,22.0,6.0,-100.00,SW,218,11.0,25.0,49,0.00,,,0.05,3.000000,,2013-03-19 02:12:00,
2013-03-18 20:22:00,22.0,6.0,-100.00,SW,218,11.0,25.0,49,0.00,,,0.05,3.000000,,2013-03-19 02:22:00,
2013-03-18 20:33:00,22.0,6.0,-100.00,SW,218,11.0,25.0,49,0.00,,,0.05,3.000000,,2013-03-19 02:33:00,
2013-03-18 20:42:00,22.0,6.0,-100.00,SW,218,11.0,25.0,49,0.00,,,0.05,3.000000,,2013-03-19 02:42:00,
2013-03-18 20:52:00,22.0,6.0,-100.00,SW,218,11.0,25.0,49,0.00,,,0.05,3.000000,,2013-03-19 02:52:00,
2013-03-18 21:12:00,20.0,13.0,-100.00,SW,220,12.0,26.0,73,0.00,,,0.05,0.000000,,2013-03-19 03:12:00,
2013-03-18 21:22:00,20.0,13.0,-100.00,SW,220,12.0,26.0,73,0.00,,,0.05,0.000000,,2013-03-19 03:22:00,
2013-03-18 21:33:00,20.0,13.0,-100.00,SW,220,12.0,26.0,73,0.00,,,0.05,0.000000,,2013-03-19 03:33:00,
2013-03-18 21:43:00,20.0,13.0,-100.00,SW,220,12.0,26.0,73,0.00,,,0.05,0.000000,,2013-03-19 03:43:00,
2013-03-18 21:53:00,20.0,13.0,-100.00,SW,220,12.0,26.0,73,0.00,,,0.05,0.000000,,2013-03-19 03:53:00,
2013-03-18 22:13:00,21.0,11.0,-100.00,SW,219,9.0,19.0,66,0.00,,,0.05,0.000000,,2013-03-19 04:13:00,
2013-03-18 22:23:00,21.0,11.0,-100.00,SW,219,9.0,19.0,66,0.00,,,0.05,0.000000,,2013-03-19 04:23:00,
2013-03-18 22:33:00,21.0,11.0,-100.00,SW,219,9.0,19.0,66,0.00,,,0.05,0.000000,,2013-03-19 04:33:00,
2013-03-18 22:43:00,21.0,11.0,-100.00,SW,219,9.0,19.0,66,0.00,,,0.05,0.000000,,2013-03-19 04:43:00,
2013-03-18 22:52:00,21.0,11.0,-100.00,SW,219,9.0,19.0,66,0.00,,,0.05,0.000000,,2013-03-19 04:52:00,
2013-03-18 23:22:00,20.0,13.0,-100.00,SSW,208,9.0,19.0,73,0.00,,,0.05,0.000000,,2013-03-19 05:22:00,
2013-03-18 23:32:00,20.0,13.0,-100.00,SSW,208,9.0,19.0,73,0.00,,,0.05,0.000000,,2013-03-19 05:32:00,
2013-03-18 23:43:00,20.0,13.0,-100.00,SSW,208,9.0,19.0,73,0.00,,,0.05,0.000000,,2013-03-19 05:43:00,
2013-03-18 23:52:00,20.0,13.0,-100.00,SSW,208,9.0,19.0,73,0.00,,,0.05,0.000000,,2013-03-19 05:52:00,